createdAt,value
2018-12-23T08:28:23.278Z,90.64
2018-12-23T08:30:51.219Z,90.24
2018-12-23T08:33:19.305Z,89.94
2018-12-23T08:35:47.354Z,89.50
2018-12-23T08:38:15.277Z,89.27
2018-12-23T08:43:36.853Z,88.65
2018-12-23T08:46:04.753Z,88.48
2018-12-23T08:48:32.743Z,88.42
2018-12-23T08:51:00.789Z,88.75
2018-12-23T08:54:04.398Z,88.37
2018-12-23T08:56:32.803Z,88.32
2018-12-23T08:59:27.423Z,87.93
2018-12-23T09:02:13.417Z,88.08
2018-12-23T09:05:24.992Z,87.76
2018-12-23T09:07:53.367Z,87.72
2018-12-23T09:10:21.299Z,87.89
2018-12-23T09:12:53.558Z,87.83
2018-12-23T09:15:19.858Z,87.81
2018-12-23T09:17:51.028Z,87.63
2018-12-23T09:20:27.363Z,87.30
2018-12-23T09:23:32.097Z,87.41
2018-12-23T09:29:23.981Z,87.03
2018-12-23T09:31:54.423Z,87.20
2018-12-23T09:34:28.081Z,87.19
2018-12-23T09:36:58.347Z,87.08
2018-12-23T09:39:29.464Z,86.99
2018-12-23T09:42:10.918Z,86.67
2018-12-23T09:45:03.792Z,86.64
2018-12-23T09:47:31.878Z,86.76
2018-12-23T09:50:02.449Z,86.83
2018-12-23T09:52:30.486Z,86.90
2018-12-23T09:54:59.732Z,86.93
2018-12-23T10:01:31.183Z,86.57
2018-12-23T10:08:25.394Z,86.59
2018-12-23T10:11:23.512Z,86.53
2018-12-23T10:13:51.880Z,86.62
2018-12-23T10:16:24.532Z,86.39
2018-12-23T10:19:00.553Z,86.86
2018-12-23T10:21:51.362Z,86.59
2018-12-23T10:27:56.560Z,86.72
2018-12-23T10:30:33.682Z,86.13
2018-12-23T10:33:07.630Z,86.20
2018-12-23T10:35:45.637Z,85.79
2018-12-23T10:53:30.608Z,86.13
2018-12-23T10:57:04.614Z,86.12
2018-12-23T11:03:45.079Z,85.97
2018-12-23T11:06:46.578Z,85.74
2018-12-23T11:09:46.383Z,85.71
2018-12-23T11:12:52.609Z,85.70
2018-12-23T11:15:24.312Z,85.81
2018-12-23T11:18:03.515Z,86.16
2018-12-23T11:21:17.098Z,86.27
2018-12-23T11:27:44.549Z,86.67
2018-12-23T11:31:26.982Z,86.68
2018-12-23T11:34:16.937Z,86.98
2018-12-23T11:37:03.714Z,86.83
2018-12-23T11:40:14.098Z,86.87
2018-12-23T11:43:55.222Z,87.31
2018-12-23T11:53:26.165Z,88.27
2018-12-23T12:07:13.163Z,89.26
2018-12-23T12:45:29.369Z,89.06
2018-12-23T12:52:16.161Z,89.71
2018-12-23T12:54:47.134Z,90.09
2018-12-23T12:57:32.913Z,89.89
2018-12-23T13:00:11.403Z,89.73
2018-12-23T13:11:11.394Z,90.04
2018-12-23T13:14:07.895Z,90.39
2018-12-23T13:23:13.909Z,89.78
2018-12-23T13:26:28.150Z,89.70
2018-12-23T13:29:55.859Z,89.78
2018-12-23T13:32:35.969Z,89.84
2018-12-23T13:35:55.863Z,90.29
2018-12-23T13:42:42.109Z,90.26
2018-12-23T14:01:10.822Z,90.91
2018-12-23T14:08:04.837Z,89.80
2018-12-23T14:11:13.948Z,90.43
2018-12-23T14:23:48.632Z,89.98
2018-12-23T14:30:03.034Z,89.52
2018-12-23T14:33:47.038Z,89.86
2018-12-23T14:40:16.207Z,90.29
2018-12-23T14:45:49.467Z,91.13
2018-12-23T14:48:25.323Z,91.75
2018-12-23T14:51:02.239Z,91.90
2018-12-23T14:53:42.700Z,91.58
2018-12-23T15:10:21.604Z,91.79
2018-12-23T15:16:18.393Z,91.83
2018-12-23T15:26:36.499Z,92.00
2018-12-23T15:29:56.670Z,92.63
2018-12-23T15:32:24.984Z,92.78
2018-12-23T15:39:30.023Z,93.16
2018-12-23T15:41:58.988Z,93.51
2018-12-23T15:47:59.908Z,94.25
2018-12-23T15:51:16.510Z,94.31
2018-12-23T15:53:59.762Z,94.44
2018-12-23T15:56:28.469Z,94.97
2018-12-23T15:59:23.385Z,94.71
2018-12-23T16:02:23.411Z,94.93
2018-12-23T16:05:14.048Z,94.54
2018-12-23T16:07:42.849Z,95.00
2018-12-23T16:10:23.673Z,95.61
2018-12-23T16:12:57.097Z,95.83
2018-12-23T16:15:25.217Z,95.93
2018-12-23T16:22:51.666Z,96.67
2018-12-23T16:25:20.069Z,97.08
2018-12-23T16:27:48.689Z,97.16
2018-12-23T16:30:17.249Z,97.23
2018-12-23T16:32:45.944Z,97.15
2018-12-23T16:35:17.663Z,97.22
2018-12-23T16:38:56.599Z,96.78
2018-12-23T16:41:25.298Z,96.53
2018-12-23T16:44:19.896Z,96.46
2018-12-23T16:46:58.149Z,96.20
2018-12-23T16:49:26.763Z,96.15
2018-12-23T16:51:54.944Z,96.31
2018-12-23T16:57:47.214Z,96.33
2018-12-23T17:01:11.192Z,95.76
2018-12-23T17:04:26.739Z,95.63
2018-12-23T17:18:07.058Z,95.94
2018-12-23T17:20:58.228Z,95.84
2018-12-23T17:23:43.950Z,95.89
2018-12-23T17:26:12.204Z,96.06
2018-12-23T17:28:40.514Z,96.14
2018-12-23T17:31:37.058Z,96.08
2018-12-23T17:37:44.434Z,96.24
2018-12-23T17:40:16.587Z,96.15
2018-12-23T17:43:22.706Z,96.41
2018-12-23T17:53:32.760Z,96.52
2018-12-23T17:59:36.889Z,96.58
2018-12-23T18:02:05.617Z,96.49
2018-12-23T18:08:09.938Z,96.35
2018-12-23T18:10:38.823Z,96.25
2018-12-23T18:13:07.745Z,96.30
2018-12-23T18:15:36.768Z,96.19
2018-12-23T18:18:09.470Z,96.51
2018-12-23T18:20:37.830Z,97.07
2018-12-23T18:23:06.256Z,97.37
2018-12-23T18:25:34.597Z,97.48
2018-12-23T18:28:02.855Z,97.40
2018-12-23T18:30:31.289Z,97.36
2018-12-23T18:32:59.664Z,97.46
2018-12-23T18:35:29.671Z,97.29
2018-12-23T18:37:57.939Z,96.94
2018-12-23T18:40:33.165Z,97.02
2018-12-23T18:42:56.472Z,97.27
2018-12-23T18:45:24.795Z,97.24
2018-12-23T18:47:53.211Z,97.31
2018-12-23T18:50:21.500Z,97.19
2018-12-23T18:52:51.061Z,97.23
2018-12-23T18:55:19.425Z,97.09
2018-12-23T18:57:48.875Z,97.20
2018-12-23T19:00:17.070Z,97.18
2018-12-23T19:02:54.676Z,97.02
2018-12-23T19:05:22.980Z,96.99
2018-12-23T19:07:57.470Z,96.88
2018-12-23T19:10:55.702Z,96.45
2018-12-23T19:14:11.555Z,96.50
2018-12-23T19:17:09.091Z,96.28
2018-12-23T19:20:18.752Z,96.48
2018-12-23T19:23:32.130Z,96.44
2018-12-23T19:26:57.040Z,96.40
2018-12-23T19:30:02.033Z,96.32
2018-12-23T19:33:07.290Z,95.76
2018-12-23T19:36:15.209Z,96.04
2018-12-23T19:39:20.735Z,96.35
2018-12-23T19:42:35.650Z,96.16
2018-12-23T19:45:51.070Z,96.28
2018-12-23T19:48:49.455Z,95.87
2018-12-23T19:51:53.715Z,95.98
2018-12-23T19:54:43.991Z,96.11
2018-12-23T19:57:50.040Z,96.21
2018-12-23T20:01:08.064Z,96.30
2018-12-23T20:03:55.589Z,96.18
2018-12-23T20:07:29.655Z,96.44
2018-12-23T20:10:40.680Z,95.99
2018-12-23T20:14:08.419Z,95.96
2018-12-23T20:17:24.403Z,95.90
2018-12-23T20:20:49.735Z,95.62
2018-12-23T20:23:54.940Z,94.82
2018-12-23T20:27:02.785Z,93.28
2018-12-23T20:30:01.263Z,93.55
2018-12-23T20:33:07.815Z,92.59
2018-12-23T20:36:02.214Z,91.40
2018-12-23T20:39:11.424Z,91.56
2018-12-23T20:42:18.369Z,92.09
2018-12-23T20:45:08.258Z,91.17
2018-12-23T20:47:59.640Z,91.38
2018-12-23T20:51:14.255Z,91.46
2018-12-23T20:54:22.335Z,90.99
2018-12-23T20:57:31.970Z,91.25
2018-12-23T21:00:50.579Z,91.05
2018-12-23T21:03:40.229Z,91.60
2018-12-23T21:06:48.229Z,91.96
2018-12-23T21:09:41.814Z,92.15
2018-12-23T21:13:01.625Z,92.58
2018-12-23T21:16:18.834Z,93.14
2018-12-23T21:19:18.031Z,92.82
2018-12-23T21:22:08.894Z,92.99
2018-12-23T21:25:13.389Z,92.92
2018-12-23T21:28:47.117Z,92.46
2018-12-23T21:31:58.987Z,92.54
2018-12-23T21:35:13.758Z,92.72
2018-12-23T21:38:22.746Z,93.01
2018-12-23T21:41:30.819Z,93.23
2018-12-23T21:44:37.999Z,93.10
2018-12-23T21:47:34.364Z,92.94
2018-12-23T21:51:05.305Z,92.75
2018-12-23T21:54:11.572Z,93.17
2018-12-23T21:57:29.578Z,93.24
2018-12-23T22:00:32.014Z,93.50
2018-12-23T22:03:36.229Z,93.43
2018-12-23T22:06:20.255Z,93.25
2018-12-23T22:09:17.293Z,93.52
2018-12-23T22:12:22.515Z,93.23
2018-12-23T22:14:50.554Z,93.12
2018-12-23T22:17:18.532Z,92.96
2018-12-23T22:19:46.575Z,92.74
2018-12-23T22:22:15.019Z,92.86
2018-12-23T22:24:43.139Z,92.86
2018-12-23T22:27:11.051Z,92.93
2018-12-23T22:29:39.179Z,93.42
2018-12-23T22:32:08.616Z,93.05
2018-12-23T22:34:37.724Z,93.13
2018-12-23T22:37:06.025Z,92.98
2018-12-23T22:39:36.954Z,93.17
2018-12-23T22:42:05.045Z,93.05
2018-12-23T22:44:33.091Z,92.96
2018-12-23T22:47:01.142Z,92.94
2018-12-23T22:49:29.038Z,92.86
2018-12-23T22:51:57.009Z,93.00
2018-12-23T22:54:25.033Z,93.09
2018-12-23T22:58:16.752Z,93.13
2018-12-23T23:01:40.186Z,93.12
2018-12-23T23:05:01.078Z,93.20
2018-12-23T23:08:05.134Z,93.14
2018-12-23T23:10:52.864Z,92.95
2018-12-23T23:13:50.363Z,92.84
2018-12-23T23:23:54.484Z,92.91
2018-12-23T23:27:04.668Z,93.08
2018-12-23T23:30:35.150Z,93.14
2018-12-23T23:36:47.817Z,93.18
2018-12-23T23:39:15.973Z,93.29
